Terminal Aerodrome Forecast
Issued by NWS

Home | Current Version | Previous Version | Text Only | Print | Product List | Glossary On
Versions: 1 2 3 4 5 6 7 8 9 10 11 12 13 14
000
FTUS46 KMFR 161300 AAA
TAFRBG
TAF AMD
KRBG 161356Z 1614/1712 00000KT P6SM SCT025
      TEMPO 1614/1618 BKN025
     FM161800 VRB03KT P6SM SCT050 BKN070
     FM170900 00000KT P6SM SCT025 BKN050=

USA.gov is the U.S. government's official web portal to all federal, state and local government web resources and services.